createdAt,value
2019-01-19T00:16:24.705Z,12.50
2019-01-19T01:13:06.755Z,3.94
2019-01-19T01:18:15.848Z,38.70
2019-01-19T01:23:25.188Z,30.39
2019-01-19T01:28:34.276Z,12.93
2019-01-19T01:33:43.536Z,8.46
2019-01-19T01:38:52.633Z,5.72
2019-01-19T01:44:01.961Z,8.06
2019-01-19T01:49:11.034Z,5.89
2019-01-19T01:54:20.190Z,5.49
2019-01-19T01:59:29.337Z,5.00
2019-01-19T02:04:38.519Z,6.11
2019-01-19T02:09:48.710Z,5.88
2019-01-19T02:14:56.329Z,12.79
2019-01-19T02:20:05.417Z,9.01
2019-01-19T02:25:14.673Z,7.97
2019-01-19T02:30:23.765Z,6.08
2019-01-19T02:35:33.054Z,14.25
2019-01-19T02:40:42.144Z,10.10
2019-01-19T02:45:51.314Z,8.35
2019-01-19T02:51:00.434Z,6.52
2019-01-19T02:56:09.649Z,10.90
2019-01-19T03:01:18.761Z,10.24
2019-01-19T03:06:28.120Z,17.57
2019-01-19T03:11:37.218Z,12.76
2019-01-19T03:16:46.379Z,11.03
2019-01-19T03:21:55.467Z,10.80
2019-01-19T03:27:04.802Z,9.47
2019-01-19T03:32:13.906Z,15.12
2019-01-19T03:37:23.079Z,9.63
2019-01-19T03:42:32.189Z,9.69
2019-01-19T03:47:41.458Z,9.61
2019-01-19T03:52:50.554Z,9.09
2019-01-19T03:57:59.761Z,8.46
2019-01-19T04:03:08.866Z,9.93
2019-01-19T04:08:18.001Z,9.46
2019-01-19T04:13:27.110Z,9.70
2019-01-19T04:18:36.429Z,8.42
2019-01-19T04:23:45.509Z,8.30
2019-01-19T04:28:54.707Z,6.69
2019-01-19T04:34:03.808Z,23.70
2019-01-19T04:39:13.021Z,25.99
2019-01-19T04:44:22.138Z,15.07
2019-01-19T04:49:31.396Z,14.99
2019-01-19T04:54:40.485Z,14.05
2019-01-19T04:59:49.641Z,13.47
2019-01-19T05:04:58.750Z,13.26
2019-01-19T05:10:07.921Z,8.65
2019-01-19T05:15:17.060Z,14.63
2019-01-19T05:20:26.233Z,14.52
2019-01-19T05:25:35.417Z,13.21
2019-01-19T05:30:44.565Z,13.33
2019-01-19T05:35:53.680Z,12.70
2019-01-19T05:41:02.859Z,12.45
2019-01-19T05:46:11.994Z,22.25
2019-01-19T05:51:21.221Z,25.28
2019-01-19T05:56:30.331Z,19.45
2019-01-19T06:01:39.481Z,25.21
2019-01-19T06:06:48.578Z,17.27
2019-01-19T06:11:57.950Z,17.75
2019-01-19T06:17:07.052Z,15.85
2019-01-19T06:22:16.363Z,25.45
2019-01-19T06:27:25.465Z,17.18
2019-01-19T06:32:34.642Z,17.60
2019-01-19T06:37:43.738Z,25.75
2019-01-19T06:42:52.892Z,26.54
2019-01-19T06:48:02.025Z,29.29
2019-01-19T06:53:11.177Z,26.48
2019-01-19T06:58:20.337Z,25.13
2019-01-19T07:03:29.722Z,26.24
2019-01-19T07:08:41.845Z,26.88
2019-01-19T07:13:40.986Z,29.93
2019-01-19T07:18:50.085Z,30.06
2019-01-19T07:23:59.234Z,27.78
2019-01-19T07:29:08.328Z,26.60
2019-01-19T07:34:17.622Z,28.03
2019-01-19T07:39:26.715Z,30.14
2019-01-19T07:44:35.886Z,27.09
2019-01-19T07:49:45.028Z,24.84
2019-01-19T07:54:54.164Z,29.43
2019-01-19T08:00:03.283Z,32.18
2019-01-19T08:05:12.505Z,28.73
2019-01-19T08:10:21.644Z,32.89
2019-01-19T08:15:30.782Z,33.12
2019-01-19T08:20:39.868Z,32.10
2019-01-19T08:25:49.021Z,30.04
2019-01-19T08:30:58.112Z,31.06
2019-01-19T08:36:07.280Z,34.19
2019-01-19T08:41:16.376Z,34.38
2019-01-19T08:46:25.612Z,33.22
2019-01-19T08:51:34.693Z,33.76
2019-01-19T08:56:44.000Z,33.63
2019-01-19T09:01:53.128Z,34.21
2019-01-19T09:07:02.306Z,34.88
2019-01-19T09:12:11.477Z,35.66
2019-01-19T09:17:20.660Z,37.56
2019-01-19T09:22:29.741Z,36.31
2019-01-19T09:27:39.054Z,36.23
2019-01-19T09:32:48.196Z,36.67
2019-01-19T09:37:57.517Z,36.06
2019-01-19T09:43:06.621Z,35.22
2019-01-19T09:48:15.801Z,41.16
2019-01-19T09:53:24.912Z,38.92
2019-01-19T09:58:34.198Z,37.53
2019-01-19T10:03:43.341Z,36.72
2019-01-19T10:08:52.578Z,34.02
2019-01-19T10:14:01.694Z,37.39
2019-01-19T10:19:11.047Z,38.54
2019-01-19T10:24:20.160Z,38.36
2019-01-19T10:29:29.357Z,40.26
2019-01-19T10:34:38.462Z,41.06
2019-01-19T10:39:47.621Z,40.41
2019-01-19T10:44:56.757Z,43.90
2019-01-19T10:50:06.035Z,44.73
2019-01-19T10:55:15.144Z,49.37
2019-01-19T11:00:24.476Z,47.84
2019-01-19T11:05:33.580Z,49.92
2019-01-19T11:10:41.530Z,45.53
2019-01-19T11:15:50.654Z,51.18
2019-01-19T11:20:59.815Z,48.60
2019-01-19T11:26:08.917Z,51.28
2019-01-19T11:31:18.147Z,51.48
2019-01-19T11:36:27.371Z,54.74
2019-01-19T11:41:36.594Z,54.60
2019-01-19T11:46:45.709Z,52.85
2019-01-19T11:51:54.992Z,54.19
2019-01-19T11:57:04.140Z,52.37
2019-01-19T12:02:13.326Z,51.81
2019-01-19T12:07:22.434Z,52.53
2019-01-19T12:12:30.122Z,47.24
2019-01-19T12:17:39.439Z,51.87
2019-01-19T12:22:48.693Z,54.78
2019-01-19T12:27:57.834Z,44.30
2019-01-19T12:33:07.081Z,11.70
2019-01-19T12:38:16.251Z,12.29
2019-01-19T12:43:25.409Z,14.79
2019-01-19T12:48:34.558Z,138.51
2019-01-19T12:53:42.699Z,53.31
2019-01-19T12:58:51.974Z,12.83
2019-01-19T13:04:01.208Z,13.77
2019-01-19T13:09:12.699Z,14.05
2019-01-19T13:14:19.317Z,13.83
2019-01-19T13:19:28.563Z,14.21
2019-01-19T13:24:38.094Z,12.67
2019-01-19T13:29:46.743Z,13.36
2019-01-19T13:34:55.974Z,13.01
2019-01-19T13:40:05.103Z,13.92
2019-01-19T13:45:14.341Z,15.03
2019-01-19T13:50:25.766Z,15.57
2019-01-19T13:55:25.018Z,12.42
2019-01-19T14:00:34.450Z,12.74
2019-01-19T14:05:43.642Z,12.93
2019-01-19T14:10:52.762Z,12.87
2019-01-19T14:16:04.003Z,12.75
2019-01-19T14:21:03.160Z,12.54
2019-01-19T14:26:12.617Z,12.73
2019-01-19T14:31:21.836Z,13.31
2019-01-19T14:36:32.041Z,14.24
2019-01-19T14:41:33.007Z,13.65
2019-01-19T14:46:41.213Z,12.16
2019-01-19T14:51:50.356Z,12.95
2019-01-19T14:56:59.538Z,13.47
2019-01-19T15:02:08.729Z,12.30
2019-01-19T15:07:17.896Z,11.59
2019-01-19T15:12:27.129Z,13.38
2019-01-19T15:17:36.370Z,12.29
2019-01-19T15:22:47.148Z,12.61
2019-01-19T15:27:55.664Z,13.92
2019-01-19T15:33:04.814Z,14.77
2019-01-19T15:38:14.055Z,14.23
2019-01-19T15:43:23.185Z,12.79
2019-01-19T15:48:32.413Z,15.44
2019-01-19T15:53:41.542Z,13.00
2019-01-19T15:58:50.830Z,12.67
2019-01-19T16:04:00.885Z,12.50
2019-01-19T16:09:00.286Z,12.79
2019-01-19T16:14:09.427Z,13.36
2019-01-19T16:19:18.725Z,13.45
2019-01-19T16:24:28.054Z,12.99
2019-01-19T16:29:37.278Z,13.68
2019-01-19T16:34:46.389Z,14.22
2019-01-19T16:39:55.697Z,12.85
2019-01-19T16:45:04.802Z,13.11
2019-01-19T16:50:13.993Z,15.21
2019-01-19T16:55:23.096Z,14.55
2019-01-19T17:00:32.286Z,13.63
2019-01-19T17:05:41.484Z,16.88
2019-01-19T17:10:50.762Z,16.38
2019-01-19T17:15:59.871Z,13.87
2019-01-19T17:21:09.079Z,13.43
2019-01-19T17:26:18.224Z,12.70
2019-01-19T17:31:27.439Z,15.61
2019-01-19T17:36:36.561Z,12.08
2019-01-19T17:41:45.772Z,12.44
2019-01-19T17:46:54.918Z,11.37
2019-01-19T17:52:04.172Z,12.83
2019-01-19T17:57:13.285Z,14.46
2019-01-19T18:02:22.405Z,11.16
2019-01-19T18:07:31.570Z,11.29
2019-01-19T18:12:40.862Z,11.51
2019-01-19T18:17:50.002Z,10.85
2019-01-19T18:22:59.229Z,13.15
2019-01-19T18:28:08.395Z,12.43
2019-01-19T18:33:17.490Z,12.20
2019-01-19T18:38:26.594Z,12.49
2019-01-19T18:43:35.845Z,12.82
2019-01-19T18:48:44.960Z,13.81
2019-01-19T18:53:54.135Z,12.93
2019-01-19T18:59:03.188Z,12.63
2019-01-19T19:04:12.341Z,14.40
2019-01-19T19:09:21.466Z,15.69
2019-01-19T19:14:30.739Z,12.13
2019-01-19T19:19:39.812Z,12.26
2019-01-19T19:24:49.254Z,12.26
2019-01-19T19:29:58.348Z,15.85
2019-01-19T19:35:07.528Z,15.00
2019-01-19T19:40:16.742Z,12.47
2019-01-19T19:45:25.929Z,12.36
2019-01-19T19:50:35.153Z,12.40
2019-01-19T19:55:44.339Z,11.76
2019-01-19T20:00:53.454Z,14.67
2019-01-19T20:06:02.798Z,11.56
2019-01-19T20:11:11.927Z,12.11
2019-01-19T20:16:21.293Z,11.15
2019-01-19T20:21:30.497Z,11.69
2019-01-19T20:26:39.707Z,13.71
2019-01-19T20:31:48.920Z,12.05
2019-01-19T20:36:58.240Z,10.77
2019-01-19T20:42:07.323Z,12.89
2019-01-19T20:47:16.558Z,12.01
2019-01-19T20:52:25.686Z,13.48
2019-01-19T20:57:34.883Z,15.79
2019-01-19T21:02:43.990Z,11.30
2019-01-19T21:07:53.342Z,14.30
2019-01-19T21:13:02.472Z,11.15
2019-01-19T21:18:11.666Z,11.73
2019-01-19T21:23:20.879Z,15.65
2019-01-19T21:28:30.202Z,12.49
2019-01-19T21:33:39.383Z,11.37
2019-01-19T21:38:48.577Z,13.44
2019-01-19T21:43:57.717Z,11.06
2019-01-19T21:49:07.058Z,14.04
2019-01-19T21:54:16.139Z,12.89
2019-01-19T21:59:25.390Z,12.04
2019-01-19T22:04:34.477Z,13.06
2019-01-19T22:09:43.680Z,13.13
2019-01-19T22:14:52.865Z,11.66
2019-01-19T22:20:02.038Z,28.27
2019-01-19T22:25:11.103Z,11.89
2019-01-19T22:30:20.254Z,12.97
2019-01-19T22:35:29.364Z,12.79
2019-01-19T22:40:38.644Z,18.71
2019-01-19T22:45:47.778Z,13.43
2019-01-19T22:50:57.002Z,19.45
2019-01-19T22:56:06.113Z,14.84
2019-01-19T23:01:15.365Z,14.59
2019-01-19T23:06:24.434Z,12.07
2019-01-19T23:11:33.933Z,13.80
2019-01-19T23:16:42.250Z,16.17
2019-01-19T23:21:51.416Z,23.46
2019-01-19T23:27:00.503Z,16.90
2019-01-19T23:32:09.774Z,15.12
2019-01-19T23:37:18.860Z,13.88
2019-01-19T23:42:28.169Z,11.29
2019-01-19T23:47:37.296Z,12.54
2019-01-19T23:52:46.506Z,11.54
2019-01-19T23:57:55.681Z,11.53
